ADDS METAR Data INFO
IDs: Format: Raw Decoded Include TAF

Data at: 1509 UTC 29 May 2017

METAR for:KCRP (Corpus Christi Intl, TX, US)
Text:KCRP 291451Z 31003KT 4SM R13/5500VP6000FT -RA BR FEW015 BKN032 OVC065 23/22 A3004 RMK AO2 RAB1355 SLP171 VIS SE-S 2 1/2 P0001 60004 T02280222 51056 $
Temperature: 22.8°C ( 73°F)
Dewpoint: 22.2°C ( 72°F) [RH = 96%]
Pressure (altimeter):30.04 inches Hg (1017.4 mb) [Sea level pressure: 1017.1 mb]
Winds:from the NW (310 degrees) at 3 MPH (3 knots; 1.5 m/s)
Visibility: 4 sm ( 6 km)
Ceiling:3200 feet AGL
Clouds: few clouds at 1500 feet AGL, broken clouds at 3200 feet AGL, overcast cloud deck at 6500 feet AGL
Weather:-RA BR (light rain, mist)
QC Flag:SOME DATA ABOVE MAY BE INACCURATE!!!"$" is an indication the sensor requires maintenance.


Page loaded:  15:09 UTC  |   08:09 AM Pacific  |   09:09 AM Mountain  |   10:09 AM Central  |   11:09 AM Eastern

 

ADVISORIES

FORECASTS

FORECASTS

OBSERVATIONS

USER TOOLS

ABOUT US